Time;durP1;ratioP1;P1;durP2;ratioP2;P2;SDS_P1;SDS_P2;PMS_P1;PMS_P2;Temp;Humidity;BMP_temperature;BMP_pressure;BME280_temperature;BME280_humidity;BME280_pressure;Samples;Min_cycle;Max_cycle;Signal;HPM_P1;HPM_P2
2024/01/28 00:00:34;;;;;;;;;;;17.40;40.70;;;;;;5070688;28;19924;-68
2024/01/28 00:02:59;;;;;;;;;;;17.90;39.80;;;;;;5072098;28;19920;-68
2024/01/28 00:05:25;;;;;;;;;;;18.50;38.80;;;;;;5071607;28;19927;-68
2024/01/28 00:07:50;;;;;;;;;;;19.10;37.80;;;;;;5071328;28;19928;-68
2024/01/28 00:10:16;;;;;;;;;;;19.80;36.70;;;;;;5105413;28;19978;-68
2024/01/28 00:12:42;;;;;;;;;;;20.40;35.70;;;;;;5108350;28;19924;-68
2024/01/28 00:15:10;;;;;;;;;;;21.10;34.90;;;;;;5075305;28;19935;-68
2024/01/28 00:17:35;;;;;;;;;;;21.60;34.10;;;;;;5075879;28;20355;-68
2024/01/28 00:20:01;;;;;;;;;;;22.10;33.40;;;;;;5108695;28;20004;-68
2024/01/28 00:22:29;;;;;;;;;;;22.50;32.80;;;;;;5109115;28;20011;-68
2024/01/28 00:24:55;;;;;;;;;;;22.90;32.30;;;;;;5109057;28;19928;-68
2024/01/28 00:27:20;;;;;;;;;;;23.20;32.00;;;;;;5075614;28;20396;-67
2024/01/28 00:29:46;;;;;;;;;;;23.50;31.70;;;;;;5091184;28;20380;-69
2024/01/28 00:32:11;;;;;;;;;;;23.60;31.50;;;;;;5108236;28;19931;-69
2024/01/28 00:34:37;;;;;;;;;;;23.70;31.40;;;;;;5057645;28;19927;-68
2024/01/28 00:37:03;;;;;;;;;;;23.60;31.30;;;;;;5075518;28;20447;-68
2024/01/28 00:39:29;;;;;;;;;;;23.50;31.40;;;;;;5075609;28;19928;-68
2024/01/28 00:41:55;;;;;;;;;;;23.40;31.60;;;;;;5076027;28;19920;-68
2024/01/28 00:44:21;;;;;;;;;;;23.20;31.80;;;;;;5075566;28;19920;-68
2024/01/28 00:46:46;;;;;;;;;;;23.00;32.00;;;;;;5074323;28;19921;-68
2024/01/28 00:49:12;;;;;;;;;;;22.80;32.20;;;;;;5075559;28;20403;-68
2024/01/28 00:51:37;;;;;;;;;;;22.60;32.50;;;;;;5107834;28;19928;-68
2024/01/28 00:54:04;;;;;;;;;;;22.30;32.80;;;;;;5073941;28;19963;-68
2024/01/28 00:56:29;;;;;;;;;;;22.10;33.10;;;;;;5075169;28;20239;-68
2024/01/28 00:58:55;;;;;;;;;;;21.90;33.40;;;;;;5074193;28;20201;-68
2024/01/28 01:01:20;;;;;;;;;;;21.70;33.70;;;;;;5073997;28;19920;-68
2024/01/28 01:03:47;;;;;;;;;;;21.50;33.90;;;;;;5108434;28;19924;-68
2024/01/28 01:06:13;;;;;;;;;;;21.30;34.10;;;;;;5075235;28;19927;-68
2024/01/28 01:08:38;;;;;;;;;;;21.10;34.40;;;;;;5107965;28;19928;-68
2024/01/28 01:11:06;;;;;;;;;;;21.00;34.60;;;;;;5073561;28;19924;-68
2024/01/28 01:13:33;;;;;;;;;;;20.80;34.70;;;;;;5074798;28;20292;-68
2024/01/28 01:15:59;;;;;;;;;;;20.80;34.80;;;;;;5107054;28;19924;-68
2024/01/28 01:18:24;;;;;;;;;;;20.60;35.00;;;;;;5073764;28;19920;-68
2024/01/28 01:20:51;;;;;;;;;;;20.50;35.10;;;;;;5074267;28;19921;-68
2024/01/28 01:23:16;;;;;;;;;;;20.50;35.30;;;;;;5074648;28;19928;-68
2024/01/28 01:25:42;;;;;;;;;;;20.30;35.30;;;;;;5074520;28;19924;-68
2024/01/28 01:28:07;;;;;;;;;;;20.30;35.50;;;;;;5106373;28;19974;-69
2024/01/28 01:30:33;;;;;;;;;;;20.20;35.50;;;;;;5074277;28;19970;-69
2024/01/28 01:32:58;;;;;;;;;;;20.00;35.60;;;;;;5106894;28;20006;-68
2024/01/28 01:35:24;;;;;;;;;;;19.90;35.70;;;;;;5106270;28;19928;-69
2024/01/28 01:37:49;;;;;;;;;;;19.80;35.90;;;;;;5073098;28;19920;-68
2024/01/28 01:40:15;;;;;;;;;;;19.70;36.00;;;;;;5074186;28;20015;-68
2024/01/28 01:42:43;;;;;;;;;;;19.60;36.20;;;;;;5073111;28;19927;-68
2024/01/28 01:45:08;;;;;;;;;;;19.50;36.30;;;;;;5106688;28;19977;-68
2024/01/28 01:47:37;;;;;;;;;;;19.40;36.40;;;;;;5073550;28;19928;-68
2024/01/28 01:50:04;;;;;;;;;;;19.30;36.60;;;;;;5072386;28;19973;-68
2024/01/28 01:52:30;;;;;;;;;;;19.20;36.70;;;;;;5072751;28;19920;-68
2024/01/28 01:54:59;;;;;;;;;;;19.10;36.80;;;;;;5073746;28;19921;-69
2024/01/28 01:57:25;;;;;;;;;;;19.00;37.00;;;;;;5105961;28;19920;-68
2024/01/28 01:59:51;;;;;;;;;;;18.90;37.10;;;;;;5072563;28;20015;-68
2024/01/28 02:02:17;;;;;;;;;;;18.70;37.10;;;;;;5073807;28;19924;-68
2024/01/28 02:04:43;;;;;;;;;;;18.60;37.30;;;;;;5106953;28;19928;-68
2024/01/28 02:07:09;;;;;;;;;;;18.60;37.50;;;;;;5106518;28;19920;-68
2024/01/28 02:09:35;;;;;;;;;;;18.50;37.60;;;;;;5106312;28;19921;-68
2024/01/28 02:12:00;;;;;;;;;;;18.40;37.70;;;;;;5073754;28;19932;-68
2024/01/28 02:14:28;;;;;;;;;;;18.30;37.90;;;;;;5106025;28;20015;-68
2024/01/28 02:16:55;;;;;;;;;;;18.20;38.10;;;;;;5073668;28;19966;-69
2024/01/28 02:19:21;;;;;;;;;;;18.00;38.20;;;;;;5106155;28;19960;-69
2024/01/28 02:21:47;;;;;;;;;;;18.00;38.30;;;;;;5072996;28;19921;-68
2024/01/28 02:24:13;;;;;;;;;;;17.90;38.50;;;;;;5073719;28;20380;-68
2024/01/28 02:26:39;;;;;;;;;;;17.80;38.70;;;;;;5072766;28;19956;-68
2024/01/28 02:29:05;;;;;;;;;;;17.70;38.80;;;;;;5071775;28;19925;-68
2024/01/28 02:31:31;;;;;;;;;;;17.60;38.90;;;;;;5105638;28;19931;-68
2024/01/28 02:33:58;;;;;;;;;;;17.50;39.10;;;;;;5071731;28;19924;-68
2024/01/28 02:36:24;;;;;;;;;;;17.40;39.20;;;;;;5073254;28;19928;-68
2024/01/28 02:38:49;;;;;;;;;;;17.30;39.30;;;;;;5073248;28;19920;-69
2024/01/28 02:41:15;;;;;;;;;;;17.30;39.60;;;;;;5106049;28;19921;-69
2024/01/28 02:43:40;;;;;;;;;;;17.20;39.70;;;;;;5073169;28;20050;-68
2024/01/28 02:46:06;;;;;;;;;;;17.10;39.80;;;;;;5105289;28;19920;-68
2024/01/28 02:48:31;;;;;;;;;;;17.00;40.00;;;;;;5071784;28;19920;-68
2024/01/28 02:50:57;;;;;;;;;;;16.90;40.10;;;;;;5073124;28;19925;-68
2024/01/28 02:53:25;;;;;;;;;;;16.90;40.20;;;;;;5088863;28;19920;-68
2024/01/28 02:55:55;;;;;;;;;;;16.80;40.40;;;;;;5105204;28;19921;-68
2024/01/28 02:58:21;;;;;;;;;;;16.70;40.50;;;;;;5071943;28;19927;-68
2024/01/28 03:00:46;;;;;;;;;;;16.70;40.60;;;;;;5105779;28;20002;-68
2024/01/28 03:03:12;;;;;;;;;;;16.60;40.60;;;;;;5071820;28;19943;-68
2024/01/28 03:05:37;;;;;;;;;;;16.60;40.70;;;;;;5072610;28;19974;-68
2024/01/28 03:08:03;;;;;;;;;;;16.50;40.80;;;;;;5072122;28;19921;-68
2024/01/28 03:10:30;;;;;;;;;;;16.50;40.90;;;;;;5070845;28;19928;-68
2024/01/28 03:12:56;;;;;;;;;;;16.40;41.00;;;;;;5072271;28;20429;-68
2024/01/28 03:15:21;;;;;;;;;;;16.40;41.00;;;;;;5104885;28;19921;-68
2024/01/28 03:17:47;;;;;;;;;;;16.30;41.10;;;;;;5104699;28;19920;-68
2024/01/28 03:20:12;;;;;;;;;;;16.30;41.20;;;;;;5070798;28;19989;-69
2024/01/28 03:22:38;;;;;;;;;;;16.30;41.30;;;;;;5072590;28;19984;-68
2024/01/28 03:25:05;;;;;;;;;;;16.20;41.30;;;;;;5071348;28;20352;-68
2024/01/28 03:27:30;;;;;;;;;;;16.20;41.40;;;;;;5071851;28;19924;-68
2024/01/28 03:29:56;;;;;;;;;;;16.20;41.40;;;;;;5104455;28;19921;-69
2024/01/28 03:32:21;;;;;;;;;;;16.20;41.50;;;;;;5071646;28;19921;-68
2024/01/28 03:34:47;;;;;;;;;;;16.10;41.50;;;;;;5071987;28;19927;-68
2024/01/28 03:37:12;;;;;;;;;;;16.10;41.50;;;;;;5104098;28;20014;-68
2024/01/28 03:39:38;;;;;;;;;;;16.10;41.50;;;;;;5071945;28;20066;-68
2024/01/28 03:42:04;;;;;;;;;;;16.10;41.50;;;;;;5104891;28;19943;-68
2024/01/28 03:44:29;;;;;;;;;;;16.10;41.50;;;;;;5069705;28;19924;-68
2024/01/28 03:46:55;;;;;;;;;;;16.10;41.60;;;;;;5071932;28;19920;-68
2024/01/28 03:49:20;;;;;;;;;;;16.20;41.60;;;;;;5104038;28;19946;-69
2024/01/28 03:51:46;;;;;;;;;;;16.40;41.40;;;;;;5071438;28;19924;-68
2024/01/28 03:54:12;;;;;;;;;;;16.70;40.90;;;;;;5070691;28;19921;-68
2024/01/28 03:56:40;;;;;;;;;;;17.10;40.30;;;;;;5069935;28;20303;-68
2024/01/28 03:59:05;;;;;;;;;;;17.40;39.60;;;;;;5104675;28;19927;-68
2024/01/28 04:01:31;;;;;;;;;;;17.80;39.00;;;;;;5104500;28;19921;-68
2024/01/28 04:03:57;;;;;;;;;;;18.20;38.40;;;;;;5070761;28;19920;-68
2024/01/28 04:06:23;;;;;;;;;;;18.70;37.70;;;;;;5071922;28;20391;-68
2024/01/28 04:08:49;;;;;;;;;;;19.20;36.90;;;;;;5071256;28;20284;-68
2024/01/28 04:11:15;;;;;;;;;;;19.70;36.10;;;;;;5069975;28;19931;-68
2024/01/28 04:13:41;;;;;;;;;;;20.30;35.30;;;;;;5071580;28;19920;-68
2024/01/28 04:16:06;;;;;;;;;;;20.80;34.50;;;;;;5071201;28;20061;-69
2024/01/28 04:18:32;;;;;;;;;;;21.40;33.80;;;;;;5071325;28;19966;-68
2024/01/28 04:20:57;;;;;;;;;;;21.80;33.20;;;;;;5103534;28;19970;-68
2024/01/28 04:23:23;;;;;;;;;;;22.20;32.60;;;;;;5071304;28;19920;-69
2024/01/28 04:25:51;;;;;;;;;;;22.60;32.20;;;;;;5071206;28;20372;-68
2024/01/28 04:28:17;;;;;;;;;;;22.90;31.90;;;;;;5070773;28;20015;-68
2024/01/28 04:30:42;;;;;;;;;;;23.10;31.50;;;;;;5103339;28;20019;-68
2024/01/28 04:33:09;;;;;;;;;;;23.40;31.20;;;;;;5103605;28;20426;-68
2024/01/28 04:35:35;;;;;;;;;;;23.50;31.80;;;;;;5103115;28;19931;-68
2024/01/28 04:38:00;;;;;;;;;;;23.50;30.90;;;;;;5103013;28;19921;-68
2024/01/28 04:40:26;;;;;;;;;;;23.50;30.90;;;;;;5103686;28;20314;-68
2024/01/28 04:42:51;;;;;;;;;;;23.40;31.00;;;;;;5103651;28;19982;-68
2024/01/28 04:45:17;;;;;;;;;;;23.20;31.20;;;;;;5070084;28;19928;-68
2024/01/28 04:47:42;;;;;;;;;;;23.10;31.50;;;;;;5103400;28;20357;-68
2024/01/28 04:50:09;;;;;;;;;;;22.80;31.60;;;;;;5070331;28;19930;-68
2024/01/28 04:52:34;;;;;;;;;;;22.60;31.90;;;;;;5070362;28;20291;-68
2024/01/28 04:55:00;;;;;;;;;;;22.40;32.20;;;;;;5103189;28;19947;-68
2024/01/28 04:57:25;;;;;;;;;;;22.20;32.50;;;;;;5106466;28;19921;-68
2024/01/28 04:59:51;;;;;;;;;;;21.90;32.70;;;;;;5107071;28;19928;-68
2024/01/28 05:02:16;;;;;;;;;;;21.70;33.00;;;;;;5074038;28;19957;-69
2024/01/28 05:04:42;;;;;;;;;;;21.50;33.20;;;;;;5075314;28;20268;-68
2024/01/28 05:07:07;;;;;;;;;;;21.30;33.40;;;;;;5107828;28;19920;-68
2024/01/28 05:09:33;;;;;;;;;;;21.10;33.60;;;;;;5074868;28;19920;-68
2024/01/28 05:11:59;;;;;;;;;;;21.00;33.80;;;;;;5074925;28;19935;-68
2024/01/28 05:14:25;;;;;;;;;;;20.80;34.00;;;;;;5107834;28;19927;-68
2024/01/28 05:16:50;;;;;;;;;;;20.70;34.20;;;;;;5073784;28;19920;-68
2024/01/28 05:19:16;;;;;;;;;;;20.60;34.30;;;;;;5074495;28;20386;-68
2024/01/28 05:21:41;;;;;;;;;;;20.50;34.50;;;;;;5074830;28;19931;-68
2024/01/28 05:24:07;;;;;;;;;;;20.40;34.50;;;;;;5107576;28;20030;-70
2024/01/28 05:26:32;;;;;;;;;;;20.30;34.60;;;;;;5073927;28;20011;-69
2024/01/28 05:29:05;;;;;;;;;;;20.20;34.70;;;;;;5107275;28;19985;-68
2024/01/28 05:31:31;;;;;;;;;;;20.10;34.80;;;;;;5107156;28;19992;-68
2024/01/28 05:33:57;;;;;;;;;;;20.00;34.90;;;;;;5107493;28;19921;-68
2024/01/28 05:36:22;;;;;;;;;;;19.90;35.00;;;;;;5074338;28;19974;-68
2024/01/28 05:38:48;;;;;;;;;;;19.80;35.10;;;;;;5072999;28;19927;-68
2024/01/28 05:41:14;;;;;;;;;;;19.70;35.20;;;;;;5072955;28;19920;-68
2024/01/28 05:43:39;;;;;;;;;;;19.50;35.30;;;;;;5074192;28;19920;-68
2024/01/28 05:46:05;;;;;;;;;;;19.50;35.40;;;;;;5107218;28;19920;-68
2024/01/28 05:48:32;;;;;;;;;;;19.40;35.60;;;;;;5073244;28;19920;-68
2024/01/28 05:50:58;;;;;;;;;;;19.30;35.70;;;;;;5073977;28;20415;-68
2024/01/28 05:53:24;;;;;;;;;;;19.10;35.80;;;;;;5107028;28;19920;-68
2024/01/28 05:55:50;;;;;;;;;;;19.10;36.00;;;;;;5073968;28;20382;-68
2024/01/28 05:58:16;;;;;;;;;;;19.00;36.10;;;;;;5106706;28;19920;-68
2024/01/28 06:00:41;;;;;;;;;;;18.90;36.10;;;;;;5106539;28;19955;-69
2024/01/28 06:03:07;;;;;;;;;;;18.80;36.30;;;;;;5072457;28;19920;-68
2024/01/28 06:05:32;;;;;;;;;;;18.70;36.40;;;;;;5074099;28;19981;-68
2024/01/28 06:07:58;;;;;;;;;;;18.60;36.60;;;;;;5106020;28;20338;-68
2024/01/28 06:10:23;;;;;;;;;;;18.50;36.70;;;;;;5073752;28;19931;-68
2024/01/28 06:12:49;;;;;;;;;;;18.50;36.90;;;;;;5073875;28;19927;-68
2024/01/28 06:15:14;;;;;;;;;;;18.30;37.00;;;;;;5106654;28;20356;-69
2024/01/28 06:17:40;;;;;;;;;;;18.20;37.10;;;;;;5106469;28;20372;-69
2024/01/28 06:20:06;;;;;;;;;;;18.20;37.40;;;;;;5073626;28;20368;-68
2024/01/28 06:22:32;;;;;;;;;;;18.00;37.40;;;;;;5105964;28;19920;-70
2024/01/28 06:24:58;;;;;;;;;;;17.90;37.50;;;;;;5073718;28;19920;-68
2024/01/28 06:27:27;;;;;;;;;;;17.80;37.70;;;;;;5088185;28;19925;-68
2024/01/28 06:29:53;;;;;;;;;;;17.80;37.90;;;;;;5105747;28;19953;-68
2024/01/28 06:32:21;;;;;;;;;;;17.70;38.00;;;;;;5072739;28;20291;-68
2024/01/28 06:34:46;;;;;;;;;;;17.60;38.10;;;;;;5073322;28;19963;-70
2024/01/28 06:37:12;;;;;;;;;;;17.50;38.20;;;;;;5072567;28;19966;-68
2024/01/28 06:39:38;;;;;;;;;;;17.40;38.30;;;;;;5105448;28;19924;-68
2024/01/28 06:42:04;;;;;;;;;;;17.30;38.50;;;;;;5072701;28;19921;-68
2024/01/28 06:44:29;;;;;;;;;;;17.20;38.70;;;;;;5105923;28;20379;-69
2024/01/28 06:46:54;;;;;;;;;;;17.10;38.90;;;;;;5072811;28;19920;-68
2024/01/28 06:49:20;;;;;;;;;;;17.00;39.00;;;;;;5071739;28;19928;-68
2024/01/28 06:51:46;;;;;;;;;;;17.00;39.20;;;;;;5105100;28;19924;-68
2024/01/28 06:54:11;;;;;;;;;;;16.80;39.30;;;;;;5072848;28;19920;-68
2024/01/28 06:56:37;;;;;;;;;;;16.80;39.40;;;;;;5110661;28;19973;-69
2024/01/28 06:59:02;;;;;;;;;;;16.70;39.50;;;;;;5070830;28;19924;-68
2024/01/28 07:01:28;;;;;;;;;;;16.70;39.60;;;;;;5105255;28;19924;-68
2024/01/28 07:03:53;;;;;;;;;;;16.60;39.60;;;;;;5105331;28;19921;-68
2024/01/28 07:06:19;;;;;;;;;;;16.60;39.80;;;;;;5072964;28;20023;-69
2024/01/28 07:08:44;;;;;;;;;;;16.50;39.80;;;;;;5105336;28;19969;-68
2024/01/28 07:11:10;;;;;;;;;;;16.50;39.90;;;;;;5105161;28;20064;-68
2024/01/28 07:13:36;;;;;;;;;;;16.40;39.90;;;;;;5072665;28;19920;-68
2024/01/28 07:16:01;;;;;;;;;;;16.40;40.00;;;;;;5072656;28;19920;-68
2024/01/28 07:18:27;;;;;;;;;;;16.40;40.10;;;;;;5105005;28;19920;-68
2024/01/28 07:20:52;;;;;;;;;;;16.80;39.80;;;;;;5071153;28;20017;-68
2024/01/28 07:23:18;;;;;;;;;;;17.20;39.10;;;;;;5071511;28;20281;-68
2024/01/28 07:25:44;;;;;;;;;;;17.70;38.30;;;;;;5071857;28;20516;-68
2024/01/28 07:28:09;;;;;;;;;;;18.30;37.60;;;;;;5072380;28;19925;-68
2024/01/28 07:30:35;;;;;;;;;;;18.80;36.70;;;;;;5072339;28;20372;-68
2024/01/28 07:33:00;;;;;;;;;;;19.40;35.70;;;;;;5072436;28;19921;-68
2024/01/28 07:35:26;;;;;;;;;;;20.10;34.70;;;;;;5072521;28;20421;-69
2024/01/28 07:37:52;;;;;;;;;;;20.70;33.80;;;;;;5070818;28;19921;-68
2024/01/28 07:40:17;;;;;;;;;;;21.30;33.00;;;;;;5072027;28;19951;-68
2024/01/28 07:42:43;;;;;;;;;;;21.90;32.30;;;;;;5072406;28;20364;-69
2024/01/28 07:45:09;;;;;;;;;;;22.40;31.60;;;;;;5105330;28;20373;-69
2024/01/28 07:47:35;;;;;;;;;;;22.80;31.20;;;;;;5071220;28;20379;-69
2024/01/28 07:50:01;;;;;;;;;;;23.20;30.70;;;;;;5104243;28;19969;-68
2024/01/28 07:52:26;;;;;;;;;;;23.50;30.20;;;;;;5071576;28;19925;-69
2024/01/28 07:54:53;;;;;;;;;;;23.70;30.00;;;;;;5071447;28;19928;-69
2024/01/28 07:57:19;;;;;;;;;;;23.90;29.90;;;;;;5071394;28;19931;-69
2024/01/28 07:59:47;;;;;;;;;;;24.00;29.90;;;;;;5071436;28;20376;-69
2024/01/28 08:02:13;;;;;;;;;;;23.90;29.80;;;;;;5071661;28;20012;-69
2024/01/28 08:04:43;;;;;;;;;;;23.80;29.90;;;;;;5104463;28;20019;-68
2024/01/28 08:07:09;;;;;;;;;;;23.70;30.00;;;;;;5071759;28;19946;-68
2024/01/28 08:09:36;;;;;;;;;;;23.40;30.20;;;;;;5071458;28;20280;-68
2024/01/28 08:12:03;;;;;;;;;;;23.20;30.40;;;;;;5071684;28;19990;-68
2024/01/28 08:14:28;;;;;;;;;;;22.90;30.70;;;;;;5071378;28;19928;-68
2024/01/28 08:16:54;;;;;;;;;;;22.60;31.00;;;;;;5070004;28;19920;-69
2024/01/28 08:19:20;;;;;;;;;;;22.30;31.40;;;;;;5103831;28;19943;-69
2024/01/28 08:21:45;;;;;;;;;;;22.00;31.60;;;;;;5071394;28;19955;-68
2024/01/28 08:24:11;;;;;;;;;;;21.70;31.90;;;;;;5072130;28;19920;-68
2024/01/28 08:26:37;;;;;;;;;;;21.50;32.30;;;;;;5071748;28;19978;-69
2024/01/28 08:29:03;;;;;;;;;;;21.30;32.50;;;;;;5103812;28;19924;-68
2024/01/28 08:31:29;;;;;;;;;;;21.10;33.50;;;;;;5105653;28;19930;-68
2024/01/28 08:33:54;;;;;;;;;;;20.90;32.90;;;;;;5074166;28;19920;-69
2024/01/28 08:36:20;;;;;;;;;;;20.80;33.20;;;;;;5107745;28;19973;-68
2024/01/28 08:38:45;;;;;;;;;;;20.70;33.40;;;;;;5107979;28;19920;-68
2024/01/28 08:41:11;;;;;;;;;;;20.50;33.50;;;;;;5074761;28;19928;-68
2024/01/28 08:43:37;;;;;;;;;;;20.40;33.60;;;;;;5073836;28;19927;-68
2024/01/28 08:46:03;;;;;;;;;;;20.40;33.80;;;;;;5108278;28;19921;-68
2024/01/28 08:48:29;;;;;;;;;;;20.30;33.90;;;;;;5108189;28;20268;-69
2024/01/28 08:50:54;;;;;;;;;;;20.20;33.90;;;;;;5073514;28;20391;-68
2024/01/28 08:53:20;;;;;;;;;;;20.10;33.90;;;;;;5107810;28;19924;-68
2024/01/28 08:55:45;;;;;;;;;;;20.10;34.10;;;;;;5074601;28;20287;-68
2024/01/28 08:58:11;;;;;;;;;;;20.00;34.10;;;;;;5107408;28;19931;-69
2024/01/28 09:00:39;;;;;;;;;;;19.90;34.20;;;;;;5074354;28;20015;-68
2024/01/28 09:03:05;;;;;;;;;;;19.90;34.30;;;;;;5074903;28;19966;-69
2024/01/28 09:05:31;;;;;;;;;;;19.70;34.40;;;;;;5074953;28;20330;-68
2024/01/28 09:07:56;;;;;;;;;;;19.60;34.50;;;;;;5107501;28;20333;-68
2024/01/28 09:10:23;;;;;;;;;;;19.50;34.60;;;;;;5074682;28;19966;-68
2024/01/28 09:12:49;;;;;;;;;;;19.40;34.70;;;;;;5074333;28;20303;-68
2024/01/28 09:15:14;;;;;;;;;;;19.40;34.90;;;;;;5107314;28;19928;-68
2024/01/28 09:17:41;;;;;;;;;;;19.30;35.00;;;;;;5107387;28;20007;-69
2024/01/28 09:20:07;;;;;;;;;;;19.20;35.00;;;;;;5106744;28;19927;-69
2024/01/28 09:22:34;;;;;;;;;;;19.10;35.10;;;;;;5073533;28;19920;-68
2024/01/28 09:24:59;;;;;;;;;;;19.00;35.20;;;;;;5107457;28;19927;-68
2024/01/28 09:27:25;;;;;;;;;;;19.00;35.40;;;;;;5107201;28;19924;-68
2024/01/28 09:29:51;;;;;;;;;;;18.90;35.50;;;;;;5107399;28;19995;-69
2024/01/28 09:32:18;;;;;;;;;;;18.80;35.60;;;;;;5106628;28;20401;-69
2024/01/28 09:34:45;;;;;;;;;;;18.70;35.70;;;;;;5073142;28;19920;-69
2024/01/28 09:37:10;;;;;;;;;;;18.70;35.80;;;;;;5107168;28;19920;-68
2024/01/28 09:39:39;;;;;;;;;;;18.60;35.80;;;;;;5106659;28;20368;-68
2024/01/28 09:42:16;;;;;;;;;;;18.50;36.00;;;;;;5072870;28;19973;-69
2024/01/28 09:44:42;;;;;;;;;;;18.50;36.00;;;;;;5106915;28;19925;-69
2024/01/28 09:47:08;;;;;;;;;;;18.40;36.20;;;;;;5107351;28;20268;-69
2024/01/28 09:49:41;;;;;;;;;;;18.30;36.30;;;;;;5072900;28;19920;-69
2024/01/28 09:52:08;;;;;;;;;;;18.20;36.50;;;;;;5072357;28;20377;-69
2024/01/28 09:54:33;;;;;;;;;;;18.10;36.60;;;;;;5072379;28;19920;-69
2024/01/28 09:57:00;;;;;;;;;;;18.00;36.70;;;;;;5073626;28;20303;-69
2024/01/28 09:59:25;;;;;;;;;;;17.90;36.70;;;;;;5074070;28;19964;-69
2024/01/28 10:01:52;;;;;;;;;;;17.80;36.90;;;;;;5073874;28;20151;-69
2024/01/28 10:04:18;;;;;;;;;;;17.70;37.00;;;;;;5074151;28;19920;-69
2024/01/28 10:06:45;;;;;;;;;;;17.60;37.10;;;;;;5073348;28;19927;-69
2024/01/28 10:09:11;;;;;;;;;;;17.50;37.30;;;;;;5106676;28;19927;-70
2024/01/28 10:11:37;;;;;;;;;;;17.40;37.50;;;;;;5106760;28;19924;-69
2024/01/28 10:14:02;;;;;;;;;;;17.30;37.70;;;;;;5106420;28;20406;-69
2024/01/28 10:16:32;;;;;;;;;;;17.20;37.90;;;;;;5072551;28;19924;-70
2024/01/28 10:18:57;;;;;;;;;;;17.10;38.00;;;;;;5072602;28;19921;-71
2024/01/28 10:21:24;;;;;;;;;;;17.00;38.20;;;;;;5106091;28;19927;-69
2024/01/28 10:23:50;;;;;;;;;;;16.90;38.40;;;;;;5106121;28;19960;-69
2024/01/28 10:26:16;;;;;;;;;;;16.90;38.50;;;;;;5106863;28;20356;-69
2024/01/28 10:28:41;;;;;;;;;;;16.80;38.60;;;;;;5106213;28;19928;-69
2024/01/28 10:31:07;;;;;;;;;;;16.70;38.70;;;;;;5106121;28;19924;-69
2024/01/28 10:33:32;;;;;;;;;;;16.70;38.80;;;;;;5072229;28;19921;-69
2024/01/28 10:36:01;;;;;;;;;;;16.60;38.90;;;;;;5106320;28;19932;-69
2024/01/28 10:38:27;;;;;;;;;;;16.60;39.10;;;;;;5072099;28;19932;-69
2024/01/28 10:40:53;;;;;;;;;;;16.50;39.10;;;;;;5072849;28;19928;-69
2024/01/28 10:43:23;;;;;;;;;;;16.50;39.20;;;;;;5071880;28;19924;-69
2024/01/28 10:45:50;;;;;;;;;;;16.40;39.30;;;;;;5105729;28;20273;-69
2024/01/28 10:48:17;;;;;;;;;;;16.40;39.40;;;;;;5071652;28;19920;-69
2024/01/28 10:50:43;;;;;;;;;;;16.40;39.40;;;;;;5105612;28;19978;-69
2024/01/28 10:53:09;;;;;;;;;;;16.30;40.20;;;;;;5105547;28;19932;-69
2024/01/28 10:55:34;;;;;;;;;;;16.30;39.50;;;;;;5105132;28;19920;-69
2024/01/28 10:58:00;;;;;;;;;;;16.30;39.60;;;;;;5105444;28;19924;-69
2024/01/28 11:00:28;;;;;;;;;;;16.30;39.70;;;;;;5105122;28;20347;-69
2024/01/28 11:02:56;;;;;;;;;;;16.20;39.70;;;;;;5072809;28;19924;-69
2024/01/28 11:05:22;;;;;;;;;;;16.20;39.80;;;;;;5072606;28;19926;-69
2024/01/28 11:07:49;;;;;;;;;;;16.20;39.80;;;;;;5072853;28;19920;-69
2024/01/28 11:10:15;;;;;;;;;;;16.40;39.80;;;;;;5072737;28;19920;-69
2024/01/28 11:12:40;;;;;;;;;;;16.80;39.20;;;;;;5105520;28;19927;-69
2024/01/28 11:15:10;;;;;;;;;;;17.30;38.60;;;;;;5071310;28;19927;-70
2024/01/28 11:17:37;;;;;;;;;;;17.80;37.90;;;;;;5105241;28;19959;-70
2024/01/28 11:20:22;;;;;;;;;;;18.40;37.20;;;;;;5105409;28;19920;-69
2024/01/28 11:22:50;;;;;;;;;;;19.00;36.40;;;;;;5071334;28;19931;-69
2024/01/28 11:25:19;;;;;;;;;;;19.70;35.20;;;;;;5104859;28;19974;-69
2024/01/28 11:27:45;;;;;;;;;;;20.40;34.40;;;;;;5072231;28;19931;-69
2024/01/28 11:30:11;;;;;;;;;;;21.00;33.50;;;;;;5072146;28;20396;-69
2024/01/28 11:32:41;;;;;;;;;;;21.60;32.70;;;;;;5102665;28;21496;-69
2024/01/28 11:35:08;;;;;;;;;;;22.10;32.00;;;;;;5104372;28;19920;-69
2024/01/28 11:37:37;;;;;;;;;;;22.60;31.50;;;;;;5104356;28;19925;-69
2024/01/28 11:40:06;;;;;;;;;;;23.00;30.90;;;;;;5104478;28;19952;-69
2024/01/28 11:42:34;;;;;;;;;;;23.30;30.60;;;;;;5071804;28;19962;-69
2024/01/28 11:45:00;;;;;;;;;;;23.40;30.30;;;;;;5104543;28;19959;-69
2024/01/28 11:47:25;;;;;;;;;;;23.50;30.30;;;;;;5071988;28;19964;-70
2024/01/28 11:49:52;;;;;;;;;;;23.40;30.30;;;;;;5071799;28;20455;-69
2024/01/28 11:52:17;;;;;;;;;;;23.30;30.30;;;;;;5104349;28;20368;-69
2024/01/28 11:54:44;;;;;;;;;;;23.20;30.40;;;;;;5071657;28;19921;-69
2024/01/28 11:57:10;;;;;;;;;;;23.00;30.60;;;;;;5071696;28;19921;-69
2024/01/28 11:59:38;;;;;;;;;;;22.80;30.70;;;;;;5103908;28;19945;-69
2024/01/28 12:02:04;;;;;;;;;;;22.60;31.00;;;;;;5103683;28;19921;-69
2024/01/28 12:04:30;;;;;;;;;;;22.30;31.20;;;;;;5072149;28;19920;-69
2024/01/28 12:06:56;;;;;;;;;;;22.10;31.50;;;;;;5070765;28;20273;-69
2024/01/28 12:09:21;;;;;;;;;;;21.90;31.80;;;;;;5104266;28;19973;-69
2024/01/28 12:11:50;;;;;;;;;;;21.60;32.10;;;;;;5104305;28;19925;-69
2024/01/28 12:14:15;;;;;;;;;;;21.40;32.40;;;;;;5104351;28;19920;-69
2024/01/28 12:16:41;;;;;;;;;;;21.20;32.60;;;;;;5071480;28;19974;-69
2024/01/28 12:19:10;;;;;;;;;;;20.90;32.80;;;;;;5103790;28;19932;-69
2024/01/28 12:21:38;;;;;;;;;;;20.80;33.20;;;;;;5103963;28;19921;-70
2024/01/28 12:24:04;;;;;;;;;;;20.50;33.40;;;;;;5070066;28;19920;-70
2024/01/28 12:26:29;;;;;;;;;;;20.30;33.70;;;;;;5071511;28;19921;-70
2024/01/28 12:28:55;;;;;;;;;;;20.10;33.90;;;;;;5071271;28;19931;-70
2024/01/28 12:31:21;;;;;;;;;;;20.00;34.20;;;;;;5104172;28;19925;-69
2024/01/28 12:33:47;;;;;;;;;;;19.90;34.40;;;;;;5069980;28;20026;-69
2024/01/28 12:36:13;;;;;;;;;;;19.80;34.60;;;;;;5103841;28;20019;-70
2024/01/28 12:38:38;;;;;;;;;;;19.70;34.60;;;;;;5071181;28;19924;-69
2024/01/28 12:41:04;;;;;;;;;;;19.60;34.70;;;;;;5069942;28;19928;-69
2024/01/28 12:43:31;;;;;;;;;;;19.50;34.70;;;;;;5071778;28;19920;-70
2024/01/28 12:45:57;;;;;;;;;;;19.50;34.80;;;;;;5071398;28;19920;-69
2024/01/28 12:48:22;;;;;;;;;;;19.40;34.80;;;;;;5071464;28;20355;-69
2024/01/28 12:50:48;;;;;;;;;;;19.40;34.90;;;;;;5070113;28;19935;-68
2024/01/28 12:53:14;;;;;;;;;;;19.30;35.00;;;;;;5091107;28;19921;-69
2024/01/28 12:55:39;;;;;;;;;;;19.30;35.00;;;;;;5073298;28;19955;-68
2024/01/28 12:58:05;;;;;;;;;;;19.20;35.10;;;;;;5073325;28;20011;-69
2024/01/28 13:00:30;;;;;;;;;;;19.10;35.10;;;;;;5091086;28;19920;-69
2024/01/28 13:02:59;;;;;;;;;;;19.10;35.20;;;;;;5106933;28;19927;-69
2024/01/28 13:05:25;;;;;;;;;;;19.10;35.30;;;;;;5091074;28;19920;-68
2024/01/28 13:07:50;;;;;;;;;;;19.00;35.40;;;;;;5073360;28;19920;-69
2024/01/28 13:10:16;;;;;;;;;;;19.00;35.50;;;;;;5073534;28;19928;-68
2024/01/28 13:12:43;;;;;;;;;;;18.90;35.50;;;;;;5073533;28;19927;-68
2024/01/28 13:15:09;;;;;;;;;;;18.80;35.60;;;;;;5073006;28;20631;-68
2024/01/28 13:17:35;;;;;;;;;;;18.70;35.70;;;;;;5074927;28;20003;-68
2024/01/28 13:20:01;;;;;;;;;;;18.70;35.80;;;;;;5077014;28;19920;-68
2024/01/28 13:22:26;;;;;;;;;;;18.60;35.80;;;;;;5076171;28;19926;-68
2024/01/28 13:24:53;;;;;;;;;;;18.60;35.90;;;;;;5076862;28;19920;-69
2024/01/28 13:27:19;;;;;;;;;;;18.50;36.00;;;;;;5110600;28;20050;-68
2024/01/28 13:29:46;;;;;;;;;;;18.50;36.10;;;;;;5110983;28;19927;-71
2024/01/28 13:32:11;;;;;;;;;;;18.40;36.20;;;;;;5077139;28;20023;-70
2024/01/28 13:34:37;;;;;;;;;;;18.40;36.30;;;;;;5094965;28;20356;-68
2024/01/28 13:37:03;;;;;;;;;;;18.30;36.30;;;;;;5094602;28;19920;-70
2024/01/28 13:39:28;;;;;;;;;;;18.30;36.50;;;;;;5076846;28;19928;-68
2024/01/28 13:41:54;;;;;;;;;;;18.20;36.40;;;;;;5076574;28;19920;-68
2024/01/28 13:44:20;;;;;;;;;;;18.20;36.50;;;;;;5076591;28;19920;-68
2024/01/28 13:46:48;;;;;;;;;;;18.20;37.00;;;;;;5076828;28;20428;-68
2024/01/28 13:49:14;;;;;;;;;;;18.10;36.60;;;;;;5077034;28;19920;-68
2024/01/28 13:51:40;;;;;;;;;;;18.10;36.70;;;;;;5094529;28;20395;-68
2024/01/28 13:54:05;;;;;;;;;;;18.00;36.80;;;;;;5076597;28;20026;-68
2024/01/28 13:56:32;;;;;;;;;;;18.00;36.90;;;;;;5094336;28;20006;-69
2024/01/28 13:58:57;;;;;;;;;;;18.00;36.90;;;;;;5094499;28;19942;-68
2024/01/28 14:01:26;;;;;;;;;;;18.00;37.00;;;;;;5094928;28;19979;-70
2024/01/28 14:03:52;;;;;;;;;;;17.90;37.00;;;;;;5111426;28;19920;-68
2024/01/28 14:06:18;;;;;;;;;;;17.90;37.10;;;;;;5094658;28;19938;-69
2024/01/28 14:08:44;;;;;;;;;;;17.80;37.10;;;;;;5110656;28;19927;-69